Time;durP1;ratioP1;P1;durP2;ratioP2;P2;SDS_P1;SDS_P2;PMS_P1;PMS_P2;Temp;Humidity;BMP_temperature;BMP_pressure;BME280_temperature;BME280_humidity;BME280_pressure;Samples;Min_cycle;Max_cycle;Signal;HPM_P1;HPM_P2
2021/09/04 00:00:35;;;;;;;7.43;5.75;;;21.00;99.90;;;;;;4998932;28;20037;-89
2021/09/04 00:03:01;;;;;;;8.82;5.93;;;20.70;99.90;;;;;;4981635;28;20026;-90
2021/09/04 00:05:28;;;;;;;6.30;5.70;;;20.60;99.90;;;;;;4981264;28;20085;-89
2021/09/04 00:07:54;;;;;;;8.52;5.90;;;20.60;99.90;;;;;;4980593;28;20525;-89
2021/09/04 00:10:20;;;;;;;7.72;5.75;;;20.70;99.90;;;;;;5010347;28;20058;-89
2021/09/04 00:12:45;;;;;;;6.65;5.80;;;20.60;99.90;;;;;;4981434;28;20030;-89
2021/09/04 00:15:12;;;;;;;7.30;5.82;;;20.50;99.90;;;;;;4981027;28;20037;-90
2021/09/04 00:17:39;;;;;;;7.97;6.05;;;20.50;99.90;;;;;;4998409;28;20345;-89
2021/09/04 00:20:06;;;;;;;8.35;5.93;;;20.40;99.90;;;;;;4981350;28;20018;-90
2021/09/04 00:22:31;;;;;;;7.20;5.78;;;20.20;99.90;;;;;;4977107;28;20026;-90
2021/09/04 00:24:57;;;;;;;9.13;5.63;;;20.30;99.90;;;;;;4997148;28;20034;-89
2021/09/04 00:27:23;;;;;;;6.07;5.47;;;20.40;99.90;;;;;;4998435;28;20043;-89
2021/09/04 00:29:48;;;;;;;7.32;6.10;;;20.40;99.90;;;;;;5005353;28;20030;-89
2021/09/04 00:32:14;;;;;;;6.53;5.50;;;20.40;99.90;;;;;;4989319;28;20033;-90
2021/09/04 00:34:40;;;;;;;9.65;5.90;;;20.50;99.90;;;;;;4996344;28;20080;-89
2021/09/04 00:37:06;;;;;;;7.70;5.68;;;20.40;99.90;;;;;;4995905;28;20039;-89
2021/09/04 00:39:31;;;;;;;6.47;5.28;;;20.40;99.90;;;;;;4980949;28;20499;-89
2021/09/04 00:41:57;;;;;;;6.95;5.78;;;20.50;99.90;;;;;;5005966;28;20053;-90
2021/09/04 00:44:23;;;;;;;6.88;5.57;;;20.40;99.90;;;;;;5005797;28;20533;-89
2021/09/04 00:46:49;;;;;;;6.00;5.35;;;20.30;99.90;;;;;;4996957;28;20030;-89
2021/09/04 00:49:15;;;;;;;7.35;5.55;;;20.30;99.90;;;;;;4994234;28;20092;-89
2021/09/04 00:51:41;;;;;;;6.05;5.55;;;20.40;99.90;;;;;;4998097;28;20031;-89
2021/09/04 00:54:08;;;;;;;6.45;5.47;;;20.40;99.90;;;;;;4997932;28;20056;-89
2021/09/04 00:56:36;;;;;;;8.35;5.40;;;20.30;99.90;;;;;;4980246;28;20410;-89
2021/09/04 00:59:06;;;;;;;6.47;5.80;;;20.40;99.90;;;;;;4997419;28;20046;-89
2021/09/04 01:01:32;;;;;;;6.40;5.88;;;20.30;99.90;;;;;;4994226;28;20056;-89
2021/09/04 01:03:57;;;;;;;6.90;6.20;;;20.20;99.90;;;;;;4996847;28;20121;-88
2021/09/04 01:06:23;;;;;;;7.85;5.65;;;20.10;99.90;;;;;;4997582;28;20057;-89
2021/09/04 01:08:49;;;;;;;6.38;5.88;;;20.00;99.90;;;;;;4997587;28;20034;-89
2021/09/04 01:11:15;;;;;;;8.02;6.05;;;20.00;99.90;;;;;;4997932;28;20057;-89
2021/09/04 01:13:41;;;;;;;6.90;6.10;;;20.00;99.90;;;;;;4995276;28;20026;-89
2021/09/04 01:16:06;;;;;;;8.95;6.32;;;20.00;99.90;;;;;;4995279;28;20173;-89
2021/09/04 01:18:32;;;;;;;7.72;6.88;;;20.00;99.90;;;;;;4997901;28;20088;-89
2021/09/04 01:21:07;;;;;;;7.82;6.85;;;20.00;99.90;;;;;;4979762;28;20057;-89
2021/09/04 01:23:33;;;;;;;6.70;6.00;;;20.00;99.90;;;;;;4997033;28;20046;-89
2021/09/04 01:26:20;;;;;;;7.78;5.85;;;19.90;99.90;;;;;;4997348;28;20096;-89
2021/09/04 01:28:46;;;;;;;7.25;6.60;;;20.00;99.90;;;;;;4995424;28;20030;-89
2021/09/04 01:31:11;;;;;;;7.10;6.40;;;20.00;99.90;;;;;;4977050;28;20027;-89
2021/09/04 01:33:43;;;;;;;7.50;6.80;;;20.00;99.90;;;;;;4997778;28;20038;-89
2021/09/04 01:36:09;;;;;;;7.28;6.57;;;20.00;99.90;;;;;;4996896;28;20419;-89
2021/09/04 01:38:35;;;;;;;7.45;6.45;;;20.00;99.90;;;;;;4997248;28;20073;-89
2021/09/04 01:41:00;;;;;;;8.82;6.80;;;20.00;99.90;;;;;;4996996;28;20029;-89
2021/09/04 01:43:26;;;;;;;7.85;7.15;;;20.00;99.90;;;;;;4992830;28;20042;-88
2021/09/04 01:45:52;;;;;;;7.55;6.72;;;19.90;99.90;;;;;;4997094;28;20034;-89
2021/09/04 01:48:17;;;;;;;9.32;6.82;;;19.80;99.90;;;;;;4979440;28;20037;-88
2021/09/04 01:50:43;;;;;;;7.70;6.03;;;19.90;99.90;;;;;;4996491;28;20044;-89
2021/09/04 01:53:08;;;;;;;6.63;6.03;;;19.80;99.90;;;;;;4979494;28;20076;-88
2021/09/04 01:55:34;;;;;;;6.57;5.97;;;19.80;99.90;;;;;;4977306;28;20042;-89
2021/09/04 01:58:00;;;;;;;8.45;6.78;;;19.90;99.90;;;;;;4982452;28;20392;-89
2021/09/04 02:00:25;;;;;;;6.70;6.10;;;19.80;99.90;;;;;;5001591;28;20034;-89
2021/09/04 02:02:51;;;;;;;6.80;6.20;;;19.70;99.90;;;;;;4983277;28;20026;-89
2021/09/04 02:05:16;;;;;;;7.82;5.72;;;19.80;99.90;;;;;;5000241;28;20034;-88
2021/09/04 02:07:42;;;;;;;6.82;6.05;;;19.70;99.90;;;;;;4999821;28;20034;-89
2021/09/04 02:10:08;;;;;;;6.90;5.80;;;19.70;99.90;;;;;;4997838;28;20030;-89
2021/09/04 02:12:34;;;;;;;6.70;6.10;;;19.70;99.90;;;;;;4984212;28;20026;-89
2021/09/04 02:15:00;;;;;;;6.82;5.80;;;19.70;99.90;;;;;;5000415;28;20490;-89
2021/09/04 02:17:26;;;;;;;7.45;6.28;;;19.80;99.90;;;;;;5000660;28;20097;-89
2021/09/04 02:19:51;;;;;;;6.80;6.05;;;19.80;99.90;;;;;;5000690;28;20402;-89
2021/09/04 02:22:17;;;;;;;6.97;6.38;;;19.80;99.90;;;;;;4996724;28;20038;-89
2021/09/04 02:24:42;;;;;;;6.68;6.10;;;19.80;99.90;;;;;;5000840;28;20030;-89
2021/09/04 02:27:08;;;;;;;8.25;6.82;;;19.70;99.90;;;;;;5000497;28;20041;-89
2021/09/04 02:29:34;;;;;;;8.77;6.82;;;19.70;99.90;;;;;;4983712;28;20034;-89
2021/09/04 02:32:00;;;;;;;7.65;6.97;;;19.70;99.90;;;;;;4993231;28;20459;-88
2021/09/04 02:34:26;;;;;;;7.45;6.55;;;19.80;99.90;;;;;;4996183;28;20030;-89
2021/09/04 02:36:51;;;;;;;7.65;6.68;;;19.70;99.90;;;;;;4983111;28;20092;-89
2021/09/04 02:39:17;;;;;;;7.20;6.50;;;19.70;99.90;;;;;;5000009;28;20069;-89
2021/09/04 02:41:43;;;;;;;7.43;6.68;;;19.70;99.90;;;;;;5000706;28;20269;-89
2021/09/04 02:44:09;;;;;;;7.30;6.60;;;19.60;99.90;;;;;;4999318;28;20046;-89
2021/09/04 02:46:35;;;;;;;10.32;6.65;;;19.50;99.90;;;;;;4997783;28;20030;-89
2021/09/04 02:49:00;;;;;;;8.20;6.47;;;19.60;99.90;;;;;;4998447;28;20040;-89
2021/09/04 02:51:26;;;;;;;7.25;6.57;;;19.60;99.90;;;;;;5000725;28;20026;-89
2021/09/04 02:53:52;;;;;;;7.50;6.10;;;19.60;99.90;;;;;;5000018;28;20450;-89
2021/09/04 02:56:17;;;;;;;8.10;6.60;;;19.70;99.90;;;;;;4999920;28;20541;-88
2021/09/04 02:58:43;;;;;;;7.65;6.80;;;19.70;99.90;;;;;;4981247;28;20479;-89
2021/09/04 03:01:09;;;;;;;7.47;6.70;;;19.70;99.90;;;;;;4997657;28;20113;-89
2021/09/04 03:03:34;;;;;;;7.45;6.70;;;19.70;99.90;;;;;;4999888;28;20034;-89
2021/09/04 03:06:03;;;;;;;7.88;7.05;;;19.70;99.90;;;;;;4999841;28;20046;-89
2021/09/04 03:08:29;;;;;;;8.90;8.10;;;19.60;99.90;;;;;;5003014;28;20101;-89
2021/09/04 03:10:55;;;;;;;7.95;7.20;;;19.70;99.90;;;;;;5010511;28;20014;-89
2021/09/04 03:13:21;;;;;;;8.45;7.75;;;19.70;99.90;;;;;;4995830;28;20487;-89
2021/09/04 03:15:46;;;;;;;8.15;7.35;;;19.70;99.90;;;;;;5000501;28;20085;-89
2021/09/04 03:18:13;;;;;;;8.95;8.05;;;19.70;99.90;;;;;;4981894;28;20030;-89
2021/09/04 03:20:39;;;;;;;8.63;7.75;;;19.60;99.90;;;;;;4999396;28;20395;-88
2021/09/04 03:23:04;;;;;;;9.38;7.75;;;19.60;99.90;;;;;;4999275;28;20033;-89
2021/09/04 03:25:30;;;;;;;8.02;7.20;;;19.50;99.90;;;;;;4978944;28;20503;-89
2021/09/04 03:27:56;;;;;;;10.00;7.85;;;19.50;99.90;;;;;;4998476;28;20027;-87
2021/09/04 03:30:21;;;;;;;8.60;7.70;;;19.50;99.90;;;;;;5006644;28;20033;-89
2021/09/04 03:32:47;;;;;;;8.10;7.38;;;19.50;99.90;;;;;;4985423;28;20085;-88
2021/09/04 03:35:13;;;;;;;7.93;7.10;;;19.50;99.90;;;;;;4981800;28;20116;-89
2021/09/04 03:37:38;;;;;;;9.45;7.18;;;19.50;99.90;;;;;;4996979;28;20042;-88
2021/09/04 03:40:05;;;;;;;8.18;7.07;;;19.50;99.90;;;;;;4979911;28;20029;-88
2021/09/04 03:42:30;;;;;;;8.20;7.40;;;19.60;99.90;;;;;;4999182;28;20030;-90
2021/09/04 03:44:56;;;;;;;8.80;6.88;;;19.60;99.90;;;;;;4980884;28;20041;-88
2021/09/04 03:47:21;;;;;;;7.60;6.90;;;19.50;99.90;;;;;;4980509;28;20035;-88
2021/09/04 03:49:47;;;;;;;7.32;6.63;;;19.40;99.90;;;;;;4992365;28;20562;-89
2021/09/04 03:52:12;;;;;;;7.68;6.90;;;19.40;99.90;;;;;;4995113;28;20042;-89
2021/09/04 03:54:38;;;;;;;7.88;6.68;;;19.40;99.90;;;;;;4999814;28;20061;-89
2021/09/04 03:57:04;;;;;;;7.82;6.53;;;19.50;99.90;;;;;;4981109;28;20471;-88
2021/09/04 03:59:30;;;;;;;7.90;7.10;;;19.40;99.90;;;;;;4981110;28;20105;-88
2021/09/04 04:01:55;;;;;;;7.68;6.80;;;19.30;99.90;;;;;;4998541;28;20026;-88
2021/09/04 04:04:21;;;;;;;7.78;6.97;;;19.30;99.90;;;;;;5009966;28;20039;-88
2021/09/04 04:06:46;;;;;;;7.07;6.32;;;19.30;99.90;;;;;;4999173;28;20053;-88
2021/09/04 04:09:12;;;;;;;7.13;6.53;;;19.30;99.90;;;;;;4980894;28;20117;-88
2021/09/04 04:11:39;;;;;;;9.45;7.38;;;19.40;99.90;;;;;;4998789;28;20053;-88
2021/09/04 04:14:04;;;;;;;8.00;7.13;;;19.40;99.90;;;;;;4980188;28;20033;-88
2021/09/04 04:16:30;;;;;;;8.18;7.38;;;19.40;99.90;;;;;;4994102;28;20380;-88
2021/09/04 04:18:56;;;;;;;8.35;7.55;;;19.40;99.90;;;;;;5009723;28;20030;-88
2021/09/04 04:21:21;;;;;;;8.38;7.57;;;19.40;99.90;;;;;;4998225;28;20456;-89
2021/09/04 04:23:47;;;;;;;8.68;7.50;;;19.50;99.90;;;;;;4997975;28;20034;-88
2021/09/04 04:26:13;;;;;;;8.30;7.45;;;19.50;99.90;;;;;;4983616;28;20172;-88
2021/09/04 04:28:39;;;;;;;8.63;7.93;;;19.50;99.90;;;;;;4991025;28;20113;-88
2021/09/04 04:31:04;;;;;;;8.70;7.80;;;19.50;99.90;;;;;;4978709;28;20092;-88
2021/09/04 04:33:30;;;;;;;8.70;7.75;;;19.40;99.90;;;;;;4980706;28;20041;-88
2021/09/04 04:35:57;;;;;;;9.20;8.13;;;19.50;99.90;;;;;;4980430;28;20506;-88
2021/09/04 04:38:22;;;;;;;10.35;8.02;;;19.50;99.90;;;;;;4998035;28;20105;-89
2021/09/04 04:40:48;;;;;;;9.18;8.38;;;19.50;99.90;;;;;;4979173;28;20058;-88
2021/09/04 04:43:14;;;;;;;8.93;8.02;;;19.40;99.90;;;;;;4976696;28;20085;-88
2021/09/04 04:45:39;;;;;;;9.40;8.50;;;19.30;99.90;;;;;;4998198;28;20036;-89
2021/09/04 04:48:05;;;;;;;8.88;8.07;;;19.40;99.90;;;;;;4997848;28;20113;-88
2021/09/04 04:50:31;;;;;;;9.32;8.32;;;19.40;99.90;;;;;;4997609;28;20026;-91
2021/09/04 04:52:57;;;;;;;8.77;7.78;;;19.40;99.90;;;;;;4997761;28;20026;-91
2021/09/04 04:55:22;;;;;;;10.00;8.73;;;19.30;99.90;;;;;;4993711;28;20037;-91
2021/09/04 04:57:48;;;;;;;9.07;8.27;;;19.30;99.90;;;;;;4998002;28;20030;-91
2021/09/04 05:00:14;;;;;;;8.80;7.97;;;19.30;99.90;;;;;;4980755;28;20118;-90
2021/09/04 05:02:39;;;;;;;8.95;7.85;;;19.20;99.90;;;;;;4997319;28;20031;-90
2021/09/04 05:05:06;;;;;;;9.27;8.32;;;19.10;99.90;;;;;;4996973;28;20128;-90
2021/09/04 05:07:32;;;;;;;10.15;7.90;;;19.20;99.90;;;;;;4976665;28;20030;-90
2021/09/04 05:09:58;;;;;;;8.60;7.55;;;19.20;99.90;;;;;;4978969;28;20117;-90
2021/09/04 05:12:23;;;;;;;8.45;7.72;;;19.10;99.90;;;;;;4997737;28;20105;-90
2021/09/04 05:14:49;;;;;;;8.50;7.70;;;19.20;99.90;;;;;;4997257;28;20494;-90
2021/09/04 05:17:15;;;;;;;8.77;7.78;;;19.10;99.90;;;;;;4979496;28;20482;-90
2021/09/04 05:19:40;;;;;;;9.00;8.20;;;19.00;99.90;;;;;;4977313;28;20027;-90
2021/09/04 05:22:06;;;;;;;8.05;7.25;;;19.10;99.90;;;;;;4995223;28;20063;-90
2021/09/04 05:24:31;;;;;;;9.55;7.57;;;19.10;99.90;;;;;;4997443;28;20034;-90
2021/09/04 05:26:57;;;;;;;8.75;7.60;;;19.10;99.90;;;;;;4996711;28;20030;-90
2021/09/04 05:29:22;;;;;;;9.73;7.50;;;19.10;99.90;;;;;;4979790;28;20026;-90
2021/09/04 05:31:48;;;;;;;9.00;8.07;;;19.10;99.90;;;;;;4995414;28;20116;-90
2021/09/04 05:34:14;;;;;;;10.85;7.82;;;19.30;99.90;;;;;;4993588;28;20096;-89
2021/09/04 05:36:39;;;;;;;8.23;7.40;;;19.30;99.90;;;;;;4997961;28;20033;-89
2021/09/04 05:39:05;;;;;;;8.18;7.35;;;19.40;99.90;;;;;;4996860;28;20030;-89
2021/09/04 05:41:30;;;;;;;8.55;7.80;;;19.30;99.90;;;;;;4996174;28;20487;-89
2021/09/04 05:43:56;;;;;;;8.27;7.50;;;19.40;99.90;;;;;;4996274;28;20077;-90
2021/09/04 05:46:22;;;;;;;7.90;7.10;;;19.50;99.90;;;;;;4992761;28;20384;-89
2021/09/04 05:48:47;;;;;;;9.15;7.35;;;19.60;99.90;;;;;;4997252;28;20042;-89
2021/09/04 05:51:13;;;;;;;7.93;7.10;;;19.70;99.90;;;;;;4978920;28;20030;-89
2021/09/04 05:53:39;;;;;;;7.60;6.90;;;19.70;99.90;;;;;;4997248;28;20500;-89
2021/09/04 05:56:05;;;;;;;8.32;7.47;;;19.80;99.90;;;;;;4996022;28;20080;-89
2021/09/04 05:58:31;;;;;;;7.93;7.20;;;19.90;99.90;;;;;;4992922;28;20030;-89
2021/09/04 06:00:57;;;;;;;7.47;6.78;;;19.90;99.90;;;;;;5011517;28;20026;-90
2021/09/04 06:03:23;;;;;;;7.90;7.10;;;19.90;99.90;;;;;;4979679;28;20041;-90
2021/09/04 06:05:48;;;;;;;10.00;7.88;;;20.00;99.90;;;;;;4996933;28;20053;-90
2021/09/04 06:08:14;;;;;;;7.95;7.10;;;20.10;99.90;;;;;;4979055;28;20030;-90
2021/09/04 06:10:40;;;;;;;7.90;7.13;;;20.20;99.90;;;;;;4994100;28;20403;-90
2021/09/04 06:13:06;;;;;;;8.30;7.50;;;20.20;99.90;;;;;;4994881;28;20606;-90
2021/09/04 06:15:32;;;;;;;8.23;6.90;;;20.30;99.90;;;;;;4979482;28;20030;-90
2021/09/04 06:17:58;;;;;;;9.52;7.30;;;20.40;99.90;;;;;;4979145;28;20042;-90
2021/09/04 06:20:23;;;;;;;9.43;7.22;;;20.50;99.90;;;;;;4979006;28;20117;-90
2021/09/04 06:22:49;;;;;;;8.43;7.47;;;20.50;99.90;;;;;;4977992;28;20462;-90
2021/09/04 06:25:15;;;;;;;8.02;7.30;;;20.50;99.90;;;;;;4993386;28;20031;-90
2021/09/04 06:27:41;;;;;;;9.65;7.88;;;20.70;99.90;;;;;;4979219;28;20027;-90
2021/09/04 06:30:08;;;;;;;8.20;7.50;;;20.90;99.90;;;;;;4996459;28;20067;-91
2021/09/04 06:32:33;;;;;;;8.52;7.80;;;20.70;99.90;;;;;;4978803;28;20038;-90
2021/09/04 06:34:59;;;;;;;8.98;7.88;;;20.70;99.90;;;;;;4996242;28;20029;-90
2021/09/04 06:37:25;;;;;;;8.82;7.93;;;20.80;99.90;;;;;;4975240;28;20036;-90
2021/09/04 06:39:50;;;;;;;10.25;7.97;;;21.00;99.90;;;;;;4979262;28;20530;-90
2021/09/04 06:42:17;;;;;;;9.32;8.18;;;20.90;99.90;;;;;;4980204;28;20042;-91
2021/09/04 06:44:43;;;;;;;9.07;8.00;;;21.00;99.90;;;;;;4999316;28;20514;-90
2021/09/04 06:47:08;;;;;;;8.98;8.07;;;20.90;99.90;;;;;;4982156;28;20037;-90
2021/09/04 06:49:34;;;;;;;8.95;8.15;;;20.90;99.90;;;;;;4995783;28;20113;-91
2021/09/04 06:52:00;;;;;;;8.75;7.95;;;20.90;99.90;;;;;;5011538;28;20033;-90
2021/09/04 06:54:25;;;;;;;9.80;7.95;;;20.90;99.90;;;;;;4999716;28;20080;-91
2021/09/04 06:56:52;;;;;;;8.85;8.05;;;21.00;99.90;;;;;;4999512;28;20521;-91
2021/09/04 06:59:18;;;;;;;9.05;8.13;;;21.00;99.90;;;;;;4982020;28;20049;-90
2021/09/04 07:01:44;;;;;;;8.85;8.05;;;21.10;99.90;;;;;;4998339;28;20038;-90
2021/09/04 07:04:10;;;;;;;8.23;7.50;;;21.20;99.90;;;;;;4996290;28;20034;-90
2021/09/04 07:06:36;;;;;;;8.82;8.02;;;21.30;99.90;;;;;;4982935;28;20053;-90
2021/09/04 07:09:02;;;;;;;10.10;7.63;;;21.50;99.90;;;;;;4999560;28;20107;-90
2021/09/04 07:11:27;;;;;;;9.02;8.10;;;21.60;99.90;;;;;;4986333;28;20033;-90
2021/09/04 07:13:53;;;;;;;8.50;7.68;;;21.50;99.90;;;;;;4992918;28;20531;-90
2021/09/04 07:16:20;;;;;;;8.50;7.60;;;21.70;99.90;;;;;;4978325;28;20034;-90
2021/09/04 07:18:46;;;;;;;9.43;8.55;;;21.60;99.90;;;;;;4982318;28;20129;-90
2021/09/04 07:21:11;;;;;;;8.57;7.78;;;21.60;99.90;;;;;;4982094;28;20037;-90
2021/09/04 07:23:37;;;;;;;8.68;7.88;;;21.80;99.90;;;;;;4999065;28;20416;-89
2021/09/04 07:26:03;;;;;;;8.45;7.63;;;21.80;99.90;;;;;;4999059;28;20036;-88
2021/09/04 07:28:28;;;;;;;9.43;8.52;;;22.00;99.90;;;;;;4995563;28;20106;-87
2021/09/04 07:30:54;;;;;;;8.57;7.72;;;22.00;99.90;;;;;;5014111;28;20026;-88
2021/09/04 07:33:20;;;;;;;8.15;7.43;;;22.10;99.90;;;;;;4999032;28;20495;-87
2021/09/04 07:35:45;;;;;;;9.25;8.05;;;22.10;99.90;;;;;;4998824;28;20034;-87
2021/09/04 07:38:11;;;;;;;8.68;7.88;;;22.20;99.90;;;;;;4981089;28;20025;-88
2021/09/04 07:40:37;;;;;;;8.20;7.40;;;22.10;99.90;;;;;;4995948;28;20035;-87
2021/09/04 07:43:03;;;;;;;9.05;7.43;;;22.60;99.90;;;;;;4996560;28;20038;-87
2021/09/04 07:45:29;;;;;;;8.93;7.53;;;22.90;99.90;;;;;;4981514;28;20037;-87
2021/09/04 07:47:54;;;;;;;9.75;7.30;;;22.90;99.90;;;;;;4998548;28;20109;-88
2021/09/04 07:50:20;;;;;;;8.73;7.88;;;22.80;99.90;;;;;;4981234;28;20141;-88
2021/09/04 07:52:46;;;;;;;9.00;6.95;;;22.40;99.90;;;;;;4996814;28;20022;-87
2021/09/04 07:55:12;;;;;;;8.27;7.47;;;22.70;99.90;;;;;;4995028;28;20375;-88
2021/09/04 07:57:37;;;;;;;8.73;7.82;;;23.00;99.90;;;;;;4998597;28;20124;-87
2021/09/04 08:00:04;;;;;;;8.05;7.35;;;23.10;99.90;;;;;;4997905;28;20030;-88
2021/09/04 08:02:30;;;;;;;8.02;7.22;;;23.30;99.90;;;;;;4998880;28;20396;-88
2021/09/04 08:04:55;;;;;;;8.23;7.18;;;23.40;99.90;;;;;;4997954;28;20029;-87
2021/09/04 08:07:21;;;;;;;8.13;7.32;;;23.60;99.90;;;;;;4993373;28;20023;-88
2021/09/04 08:09:46;;;;;;;7.70;6.97;;;23.90;99.90;;;;;;4998635;28;20023;-88
2021/09/04 08:12:12;;;;;;;8.18;7.38;;;24.10;99.90;;;;;;4980155;28;20030;-87
2021/09/04 08:14:38;;;;;;;8.48;7.68;;;24.10;99.90;;;;;;5003358;28;20510;-88
2021/09/04 08:17:03;;;;;;;7.65;6.85;;;24.10;99.90;;;;;;5007921;28;20030;-87
2021/09/04 08:19:29;;;;;;;7.30;6.50;;;24.20;99.90;;;;;;4976799;28;20023;-88
2021/09/04 08:21:55;;;;;;;9.10;6.72;;;24.50;99.90;;;;;;4997209;28;20069;-87
2021/09/04 08:24:20;;;;;;;7.97;6.53;;;24.70;99.90;;;;;;4997731;28;20097;-88
2021/09/04 08:26:46;;;;;;;8.00;7.18;;;24.80;99.90;;;;;;4997490;28;20077;-88
2021/09/04 08:29:11;;;;;;;7.47;6.88;;;24.70;99.90;;;;;;4998202;28;20479;-88
2021/09/04 08:31:37;;;;;;;7.38;6.60;;;24.60;99.90;;;;;;4977373;28;20058;-88
2021/09/04 08:34:02;;;;;;;6.97;6.38;;;24.30;99.90;;;;;;4996080;28;20031;-88
2021/09/04 08:36:28;;;;;;;7.88;7.10;;;24.40;99.90;;;;;;4997843;28;20479;-88
2021/09/04 08:38:54;;;;;;;7.32;6.68;;;24.30;99.90;;;;;;4980073;28;20096;-88
2021/09/04 08:41:19;;;;;;;7.03;6.32;;;24.50;99.90;;;;;;4997490;28;20502;-87
2021/09/04 08:43:46;;;;;;;6.97;6.30;;;24.50;99.90;;;;;;4995457;28;20609;-88
2021/09/04 08:46:14;;;;;;;7.85;7.07;;;24.30;99.90;;;;;;4994383;28;20403;-88
2021/09/04 08:48:43;;;;;;;8.25;7.10;;;24.50;99.90;;;;;;4997703;28;20065;-87
2021/09/04 08:51:09;;;;;;;8.98;7.03;;;24.80;99.90;;;;;;4996830;28;20519;-88
2021/09/04 08:53:34;;;;;;;8.65;7.85;;;24.70;99.90;;;;;;4997346;28;20038;-88
2021/09/04 08:56:00;;;;;;;7.32;6.68;;;24.60;99.90;;;;;;4980147;28;20030;-88
2021/09/04 08:58:26;;;;;;;7.78;6.90;;;24.70;99.90;;;;;;4993037;28;20030;-88
2021/09/04 09:00:51;;;;;;;6.78;6.18;;;24.90;99.90;;;;;;4980439;28;20030;-88
2021/09/04 09:03:25;;;;;;;7.30;6.63;;;25.20;99.90;;;;;;4979662;28;20038;-89
2021/09/04 09:05:52;;;;;;;8.40;7.60;;;25.00;99.90;;;;;;4996153;28;20034;-89
2021/09/04 09:08:23;;;;;;;7.45;6.63;;;24.70;99.90;;;;;;4997057;28;20026;-88
2021/09/04 09:10:51;;;;;;;7.30;6.70;;;24.80;99.90;;;;;;4996419;28;20030;-89
2021/09/04 09:13:17;;;;;;;8.05;6.95;;;25.10;99.90;;;;;;4993530;28;20095;-87
2021/09/04 09:15:43;;;;;;;7.28;6.40;;;25.00;99.90;;;;;;4980316;28;20031;-88
2021/09/04 09:18:12;;;;;;;7.43;6.68;;;25.10;99.90;;;;;;4997220;28;20058;-87
2021/09/04 09:20:56;;;;;;;7.53;6.75;;;25.20;99.90;;;;;;4996376;28;20073;-88
2021/09/04 09:23:22;;;;;;;6.72;6.13;;;25.40;99.90;;;;;;4997415;28;20035;-88
2021/09/04 09:25:49;;;;;;;6.80;6.18;;;25.50;99.90;;;;;;4995499;28;20034;-88
2021/09/04 09:28:16;;;;;;;6.93;6.10;;;25.60;99.90;;;;;;4993438;28;20026;-88
2021/09/04 09:30:56;;;;;;;6.72;6.03;;;25.70;99.90;;;;;;4997108;28;20373;-88
2021/09/04 09:33:23;;;;;;;6.50;5.88;;;25.40;99.90;;;;;;4996450;28;20050;-88
2021/09/04 09:35:55;;;;;;;6.57;6.05;;;25.60;99.90;;;;;;4996690;28;20057;-88
2021/09/04 09:38:23;;;;;;;7.75;5.88;;;25.60;99.90;;;;;;4996519;28;20023;-88
2021/09/04 09:40:50;;;;;;;6.03;5.40;;;25.70;99.90;;;;;;4995488;28;20097;-88
2021/09/04 09:43:24;;;;;;;6.70;5.47;;;26.10;99.90;;;;;;4993469;28;20046;-88
2021/09/04 09:45:57;;;;;;;5.72;5.25;;;26.50;99.90;;;;;;4997154;28;20113;-88
2021/09/04 09:48:26;;;;;;;5.53;4.80;;;27.00;99.90;;;;;;4996650;28;20483;-89
2021/09/04 09:50:53;;;;;;;6.07;5.13;;;27.10;99.90;;;;;;4996801;28;20034;-89
2021/09/04 09:53:20;;;;;;;4.90;4.50;;;30.20;99.90;;;;;;4996419;28;20026;-89
2021/09/04 09:55:47;;;;;;;5.75;5.15;;;34.30;99.90;;;;;;4995514;28;20034;-89
2021/09/04 09:58:14;;;;;;;4.90;4.50;;;37.70;96.70;;;;;;4993843;28;20054;-89
2021/09/04 10:00:41;;;;;;;5.35;4.78;;;39.00;92.50;;;;;;4980638;28;20049;-90
2021/09/04 10:03:09;;;;;;;5.35;4.85;;;40.10;90.40;;;;;;4978943;28;20033;-90
2021/09/04 10:05:35;;;;;;;4.95;4.55;;;40.70;82.80;;;;;;5002096;28;20034;-90
2021/09/04 10:08:01;;;;;;;4.70;4.30;;;40.90;77.00;;;;;;5007141;28;20030;-90
2021/09/04 10:10:30;;;;;;;4.45;4.05;;;41.00;68.90;;;;;;4993602;28;20068;-91
2021/09/04 10:12:56;;;;;;;9.35;4.53;;;41.60;84.30;;;;;;4996627;28;20503;-89
2021/09/04 10:15:26;;;;;;;4.82;4.43;;;41.80;63.90;;;;;;4996389;28;20356;-90
2021/09/04 10:17:55;;;;;;;5.10;4.40;;;42.00;65.60;;;;;;4998580;28;20574;-90
2021/09/04 10:20:25;;;;;;;4.90;3.75;;;43.00;60.30;;;;;;5000701;28;20088;-91
2021/09/04 10:22:55;;;;;;;4.72;4.32;;;43.80;57.00;;;;;;4999953;28;20522;-90
2021/09/04 10:25:21;;;;;;;4.32;3.92;;;43.70;54.10;;;;;;4996091;28;20133;-91
2021/09/04 10:27:49;;;;;;;5.07;3.83;;;42.90;52.60;;;;;;5001092;28;20329;-91
2021/09/04 10:30:24;;;;;;;4.97;4.20;;;43.20;53.30;;;;;;5000359;28;20042;-90
2021/09/04 10:33:09;;;;;;;4.28;3.90;;;43.90;52.90;;;;;;4999697;28;20030;-91
2021/09/04 10:35:42;;;;;;;4.38;3.95;;;44.40;50.20;;;;;;5000489;28;20042;-91
2021/09/04 10:38:20;;;;;;;3.90;3.60;;;44.00;49.90;;;;;;4999978;28;20025;-91
2021/09/04 10:40:47;;;;;;;5.13;4.05;;;44.40;46.30;;;;;;4998445;28;20044;-91
2021/09/04 10:43:17;;;;;;;4.25;3.95;;;44.90;43.40;;;;;;4997380;28;20129;-91
2021/09/04 10:45:50;;;;;;;4.80;4.40;;;44.10;46.20;;;;;;4982706;28;20403;-90
2021/09/04 10:48:22;;;;;;;4.57;4.18;;;40.30;49.60;;;;;;4982704;28;20170;-91
2021/09/04 10:51:04;;;;;;;4.05;3.72;;;35.60;70.00;;;;;;4999783;28;20117;-91
2021/09/04 10:53:47;;;;;;;4.32;3.92;;;34.80;81.10;;;;;;4999727;28;20030;-91
2021/09/04 10:56:25;;;;;;;4.70;4.30;;;35.80;79.40;;;;;;4999657;28;20494;-91
2021/09/04 10:58:52;;;;;;;5.63;4.65;;;35.30;81.80;;;;;;4999346;28;20029;-90
2021/09/04 11:01:36;;;;;;;4.38;4.03;;;34.80;81.80;;;;;;4996175;28;20037;-90
2021/09/04 11:04:02;;;;;;;5.63;4.57;;;36.60;78.40;;;;;;5008869;28;20088;-90
2021/09/04 11:06:28;;;;;;;4.63;4.22;;;36.90;75.10;;;;;;4999960;28;20066;-90
2021/09/04 11:08:54;;;;;;;4.97;4.00;;;37.20;69.00;;;;;;4982213;28;20050;-90
2021/09/04 11:11:29;;;;;;;4.90;4.50;;;35.20;73.00;;;;;;4982055;28;20117;-90
2021/09/04 11:14:19;;;;;;;4.97;4.20;;;34.00;84.00;;;;;;4981486;28;20113;-90
2021/09/04 11:16:52;;;;;;;4.65;3.75;;;36.00;83.20;;;;;;4984121;28;20066;-90
2021/09/04 11:19:21;;;;;;;5.03;3.90;;;37.40;74.30;;;;;;4978408;28;20027;-90
2021/09/04 11:21:56;;;;;;;4.90;4.00;;;39.90;66.20;;;;;;4999980;28;20037;-90
2021/09/04 11:24:26;;;;;;;5.18;4.40;;;42.40;56.40;;;;;;4999579;28;20046;-90
2021/09/04 11:26:54;;;;;;;5.18;4.57;;;43.70;46.50;;;;;;4981438;28;20121;-91
2021/09/04 11:29:20;;;;;;;4.45;4.05;;;42.30;51.10;;;;;;5001264;28;20045;-90
2021/09/04 11:31:53;;;;;;;4.28;3.97;;;40.80;52.30;;;;;;5010724;28;20494;-90
2021/09/04 11:34:36;;;;;;;4.13;3.72;;;42.20;53.50;;;;;;4994914;28;20026;-91
2021/09/04 11:37:35;;;;;;;4.10;3.70;;;43.60;49.60;;;;;;5007710;28;20093;-91
2021/09/04 11:40:11;;;;;;;5.40;4.10;;;44.80;44.60;;;;;;4997564;28;20038;-91
2021/09/04 11:42:40;;;;;;;3.58;3.28;;;45.70;39.70;;;;;;4997716;28;20037;-91
2021/09/04 11:45:09;;;;;;;4.47;3.60;;;46.80;32.80;;;;;;4981034;28;20038;-91
2021/09/04 11:47:37;;;;;;;3.67;3.38;;;45.20;36.80;;;;;;4998701;28;20613;-91
2021/09/04 11:50:09;;;;;;;5.65;3.40;;;46.30;36.00;;;;;;4998699;28;20034;-91
2021/09/04 11:52:38;;;;;;;3.80;3.50;;;44.70;36.80;;;;;;4978523;28;20113;-91
2021/09/04 11:55:23;;;;;;;4.28;3.58;;;44.00;42.10;;;;;;4979565;28;20054;-92
2021/09/04 11:57:52;;;;;;;3.95;3.65;;;44.70;38.70;;;;;;4999126;28;20507;-90
2021/09/04 12:00:19;;;;;;;3.88;3.28;;;45.90;28.50;;;;;;4981182;28;20568;-91
2021/09/04 12:03:06;;;;;;;3.78;3.47;;;46.30;30.90;;;;;;4998883;28;20069;-92
2021/09/04 12:05:37;;;;;;;3.78;3.47;;;47.60;29.70;;;;;;4998259;28;20410;-92
2021/09/04 12:08:15;;;;;;;3.85;3.20;;;46.90;31.20;;;;;;4998446;28;20123;-92
2021/09/04 12:10:44;;;;;;;5.47;3.45;;;45.90;32.30;;;;;;4996371;28;20117;-91
2021/09/04 12:13:16;;;;;;;3.75;3.45;;;46.80;28.40;;;;;;4995542;28;20499;-92
2021/09/04 12:15:43;;;;;;;3.85;3.45;;;46.20;31.80;;;;;;5009073;28;20157;-91
2021/09/04 12:18:09;;;;;;;4.00;3.70;;;45.90;30.50;;;;;;4999955;28;20030;-92
2021/09/04 12:20:40;;;;;;;4.30;3.90;;;46.50;30.40;;;;;;4998864;28;20052;-91
2021/09/04 12:23:24;;;;;;;3.63;3.30;;;46.70;29.30;;;;;;5008410;28;20075;-92
2021/09/04 12:25:52;;;;;;;4.40;3.70;;;47.50;26.80;;;;;;4997859;28;20026;-92
2021/09/04 12:28:26;;;;;;;3.78;3.53;;;47.50;27.20;;;;;;4994461;28;20034;-91
2021/09/04 12:30:57;;;;;;;3.97;3.63;;;45.90;31.20;;;;;;5005891;28;20057;-92
2021/09/04 12:33:24;;;;;;;4.20;3.80;;;45.20;32.90;;;;;;4997759;28;20042;-91
2021/09/04 12:36:00;;;;;;;3.60;3.30;;;44.80;31.80;;;;;;4998218;28;20022;-91
2021/09/04 12:38:46;;;;;;;3.60;3.30;;;46.00;32.20;;;;;;4997786;28;20037;-92
2021/09/04 12:41:16;;;;;;;3.92;3.53;;;46.50;37.40;;;;;;4989202;28;20034;-93
2021/09/04 12:43:51;;;;;;;4.13;3.83;;;47.20;27.90;;;;;;4995936;28;20043;-92
2021/09/04 12:46:37;;;;;;;3.85;3.55;;;42.30;35.30;;;;;;4994387;28;20033;-92